Terminal Aerodrome Forecast
Issued by NWS

Home | Current Version | Previous Version | Text Only | Print | Product List | Glossary On
Versions: 1 2 3 4 5 6 7 8 9 10 11 12 13 14 15 16 17 18 19 20 21
000
FTUS44 KLZK 272300
TAFLIT
TAF
KLIT 272340Z 2800/2824 15004KT P6SM SCT250
     FM281000 VRB03KT 5SM BR SCT015 BKN250
      TEMPO 2810/2814 2SM BR BKN015
     FM281400 15004KT P6SM SCT025 BKN060
      TEMPO 2814/2817 BKN020
     FM281700 16005KT P6SM SCT035 BKN250=

USA.gov is the U.S. government's official web portal to all federal, state and local government web resources and services.